Time;durP1;ratioP1;P1;durP2;ratioP2;P2;SDS_P1;SDS_P2;PMS_P1;PMS_P2;Temp;Humidity;BMP_temperature;BMP_pressure;BME280_temperature;BME280_humidity;BME280_pressure;Samples;Min_cycle;Max_cycle;Signal;HPM_P1;HPM_P2
2023/04/05 00:00:38;;;;;;;12.77;9.05;;;;;;;8.73;82.93;149492.69;5103452;28;20035;-68
2023/04/05 00:03:04;;;;;;;10.55;9.45;;;;;;;8.77;83.70;149501.69;5087623;28;20331;-67
2023/04/05 00:05:30;;;;;;;11.10;9.63;;;;;;;8.73;82.96;149491.44;5095699;28;20040;-67
2023/04/05 00:07:58;;;;;;;13.38;10.30;;;;;;;8.72;83.37;149488.88;5123777;28;20072;-68
2023/04/05 00:10:23;;;;;;;12.98;10.27;;;;;;;8.62;83.91;149465.84;5120877;28;20362;-67
2023/04/05 00:12:50;;;;;;;12.45;10.13;;;;;;;8.69;83.28;149481.19;5103366;28;20083;-66
2023/04/05 00:15:15;;;;;;;18.40;11.23;;;;;;;8.60;83.81;149459.44;5085762;28;20021;-68
2023/04/05 00:17:42;;;;;;;13.00;10.15;;;;;;;8.58;83.28;149454.28;5095246;28;20035;-67
2023/04/05 00:20:11;;;;;;;14.68;10.38;;;;;;;8.54;83.64;149445.34;5095422;28;20376;-67
2023/04/05 00:22:37;;;;;;;15.77;11.20;;;;;;;8.51;84.37;149437.66;5086404;28;20031;-67
2023/04/05 00:25:06;;;;;;;13.15;11.18;;;;;;;8.41;84.51;149412.03;5103136;28;20020;-67
2023/04/05 00:27:31;;;;;;;16.08;11.02;;;;;;;8.42;84.17;149415.84;5083681;28;20032;-69
2023/04/05 00:29:57;;;;;;;13.48;11.38;;;;;;;8.17;84.91;149351.84;5097461;28;20020;-68
2023/04/05 00:32:22;;;;;;;15.20;10.98;;;;;;;8.28;84.31;149381.28;5097908;28;20044;-68
2023/04/05 00:34:49;;;;;;;14.30;10.32;;;;;;;8.16;84.72;149349.28;5098165;28;20036;-67
2023/04/05 00:37:15;;;;;;;16.45;12.02;;;;;;;7.98;85.16;149304.47;5082741;28;20420;-65
2023/04/05 00:39:40;;;;;;;19.23;11.82;;;;;;;8.02;85.82;149315.97;5102222;28;20036;-65
2023/04/05 00:42:07;;;;;;;14.18;10.73;;;;;;;8.06;85.82;149326.22;5087224;28;20088;-67
2023/04/05 00:44:33;;;;;;;18.13;12.40;;;;;;;8.02;86.42;149315.97;5096863;28;20101;-67
2023/04/05 00:47:08;;;;;;;15.48;10.82;;;;;;;8.09;86.15;149333.94;5100555;28;20036;-66
2023/04/05 00:49:35;;;;;;;12.70;11.10;;;;;;;8.04;85.38;149319.84;5086484;28;20066;-66
2023/04/05 00:52:02;;;;;;;13.50;10.93;;;;;;;8.02;85.71;149315.97;5086221;28;20114;-65
2023/04/05 00:54:28;;;;;;;13.98;10.73;;;;;;;7.97;85.57;149303.22;5105026;28;20028;-67
2023/04/05 00:57:00;;;;;;;16.75;11.63;;;;;;;7.89;86.38;149283.97;5092654;28;20032;-65
2023/04/05 00:59:29;;;;;;;16.08;12.02;;;;;;;7.93;85.76;149294.22;5096229;28;20028;-65
2023/04/05 01:02:00;;;;;;;13.43;11.20;;;;;;;7.86;86.31;149275.03;5100961;28;20036;-65
2023/04/05 01:04:29;;;;;;;13.80;11.38;;;;;;;7.68;86.46;149231.56;5087606;28;20263;-65
2023/04/05 01:07:12;;;;;;;16.23;11.93;;;;;;;7.82;86.27;149264.81;5105061;28;20024;-66
2023/04/05 01:09:56;;;;;;;17.17;11.75;;;;;;;7.81;85.88;149263.53;5106437;28;20058;-65
2023/04/05 01:12:26;;;;;;;15.48;11.75;;;;;;;7.75;86.30;149249.47;5088382;28;20384;-64
2023/04/05 01:14:53;;;;;;;15.15;11.38;;;;;;;7.80;86.73;149260.97;5098797;28;20067;-65
2023/04/05 01:17:21;;;;;;;15.93;11.50;;;;;;;7.64;85.36;149221.31;5097019;28;20036;-65
2023/04/05 01:19:52;;;;;;;13.15;10.98;;;;;;;7.76;86.05;149252.00;5088996;28;20082;-65
2023/04/05 01:22:49;;;;;;;15.82;11.50;;;;;;;7.70;85.93;149235.38;5104752;28;20247;-65
2023/04/05 01:25:23;;;;;;;16.85;10.55;;;;;;;7.78;85.54;149255.81;5085741;28;20203;-65
2023/04/05 01:28:15;;;;;;;17.05;12.63;;;;;;;7.71;85.46;149239.22;5085799;28;20060;-65
2023/04/05 01:30:48;;;;;;;12.73;11.23;;;;;;;7.68;85.13;149231.56;5085643;28;20090;-64
2023/04/05 01:33:23;;;;;;;17.88;11.98;;;;;;;7.54;85.26;149197.00;5089085;28;20052;-64
2023/04/05 01:36:38;;;;;;;14.65;11.63;;;;;;;7.36;86.69;149152.19;5085547;28;20159;-64
2023/04/05 01:39:07;;;;;;;15.20;11.02;;;;;;;7.28;87.00;149131.72;5100244;28;20069;-63
2023/04/05 01:41:33;;;;;;;14.32;10.25;;;;;;;7.43;86.17;149170.09;5095448;28;20043;-64
2023/04/05 01:43:58;;;;;;;16.77;11.90;;;;;;;7.39;85.72;149158.59;5090858;28;20051;-64
2023/04/05 01:46:24;;;;;;;16.30;11.73;;;;;;;7.40;85.88;149162.44;5104865;28;20046;-64
2023/04/05 01:48:50;;;;;;;12.85;11.32;;;;;;;7.43;86.92;149170.09;5085444;28;20020;-65
2023/04/05 01:51:16;;;;;;;15.20;11.52;;;;;;;7.43;85.94;149170.09;5101446;28;20067;-65
2023/04/05 01:53:41;;;;;;;15.40;11.38;;;;;;;7.46;85.17;149176.50;5092665;28;20058;-65
2023/04/05 01:56:07;;;;;;;12.73;10.30;;;;;;;7.44;86.01;149171.41;5091124;28;20243;-64
2023/04/05 01:58:32;;;;;;;15.75;10.52;;;;;;;7.43;85.45;149170.09;5102120;28;20032;-64
2023/04/05 02:00:58;;;;;;;12.77;10.93;;;;;;;7.41;85.83;149165.00;5085362;28;20028;-65
2023/04/05 02:03:24;;;;;;;14.57;10.82;;;;;;;7.35;85.28;149149.63;5102199;28;20028;-64
2023/04/05 02:05:50;;;;;;;13.02;10.77;;;;;;;7.32;85.03;149141.97;5101942;28;20035;-65
2023/04/05 02:08:17;;;;;;;13.85;10.88;;;;;;;7.38;84.53;149156.03;5117792;28;20032;-65
2023/04/05 02:10:43;;;;;;;12.75;10.30;;;;;;;7.36;85.57;149150.94;5102060;28;20127;-66
2023/04/05 02:13:08;;;;;;;15.70;11.00;;;;;;;7.36;84.94;149152.19;5084961;28;20032;-65
2023/04/05 02:15:34;;;;;;;12.98;11.27;;;;;;;7.24;85.72;149121.53;5102691;28;20055;-65
2023/04/05 02:18:03;;;;;;;19.13;12.32;;;;;;;7.20;84.83;149112.56;5105112;28;20030;-65
2023/04/05 02:20:29;;;;;;;12.07;10.85;;;;;;;7.19;84.57;149108.72;5095558;28;20035;-64
2023/04/05 02:22:55;;;;;;;13.68;12.00;;;;;;;7.16;85.57;149101.06;5084487;28;20332;-65
2023/04/05 02:25:21;;;;;;;13.70;10.48;;;;;;;7.12;86.00;149090.81;5084612;28;20429;-66
2023/04/05 02:27:47;;;;;;;14.73;11.68;;;;;;;7.05;85.73;149075.50;5084851;28;20047;-65
2023/04/05 02:30:14;;;;;;;14.57;11.27;;;;;;;7.07;84.97;149080.59;5099046;28;20103;-66
2023/04/05 02:32:46;;;;;;;12.25;10.93;;;;;;;7.13;84.84;149093.41;5089975;28;20037;-65
2023/04/05 02:35:12;;;;;;;14.18;11.45;;;;;;;6.96;85.36;149051.19;5091104;28;20042;-65
2023/04/05 02:37:38;;;;;;;13.02;11.00;;;;;;;6.99;85.09;149060.13;5102714;28;20051;-65
2023/04/05 02:40:09;;;;;;;14.18;10.75;;;;;;;6.91;84.91;149039.66;5084269;28;20052;-65
2023/04/05 02:42:35;;;;;;;15.80;11.95;;;;;;;6.81;84.77;149014.09;5101889;28;20028;-65
2023/04/05 02:45:01;;;;;;;14.10;10.88;;;;;;;6.85;84.50;149025.56;5090629;28;20059;-66
2023/04/05 02:47:26;;;;;;;14.68;11.73;;;;;;;6.87;84.80;149030.72;5092787;28;20025;-66
2023/04/05 02:49:52;;;;;;;13.25;11.07;;;;;;;6.84;84.52;149021.75;5083141;28;20040;-64
2023/04/05 02:52:17;;;;;;;14.95;10.65;;;;;;;6.78;84.47;149007.69;5084192;28;20035;-64
2023/04/05 02:54:43;;;;;;;12.10;9.88;;;;;;;6.74;84.71;148998.75;5103638;28;20031;-65
2023/04/05 02:57:10;;;;;;;15.93;11.20;;;;;;;6.54;84.96;148947.59;5089296;28;20042;-64
2023/04/05 02:59:37;;;;;;;14.52;11.25;;;;;;;6.51;84.82;148941.22;5094020;28;20077;-65
2023/04/05 03:02:04;;;;;;;14.15;10.98;;;;;;;6.57;84.17;148955.31;5098727;28;20328;-66
2023/04/05 03:04:33;;;;;;;14.98;11.18;;;;;;;6.53;84.24;148946.31;5084748;28;20028;-65
2023/04/05 03:07:01;;;;;;;14.65;11.88;;;;;;;6.49;85.02;148934.84;5118542;28;20027;-66
2023/04/05 03:09:33;;;;;;;12.52;10.40;;;;;;;6.40;83.85;148913.13;5106936;28;20036;-65
2023/04/05 03:12:00;;;;;;;19.25;12.07;;;;;;;6.32;84.46;148893.91;5090630;28;20024;-67
2023/04/05 03:14:26;;;;;;;13.10;11.00;;;;;;;6.44;84.34;148922.03;5092147;28;20027;-66
2023/04/05 03:16:52;;;;;;;15.40;11.95;;;;;;;6.50;83.90;148938.66;5094001;28;20048;-65
2023/04/05 03:19:21;;;;;;;14.00;12.02;;;;;;;6.48;83.68;148932.25;5091780;28;20303;-65
2023/04/05 03:21:49;;;;;;;14.30;11.57;;;;;;;6.46;83.54;148927.16;5092704;28;20226;-65
2023/04/05 03:24:15;;;;;;;13.77;12.30;;;;;;;6.41;83.21;148915.63;5090201;28;20020;-66
2023/04/05 03:26:45;;;;;;;16.38;12.15;;;;;;;6.45;83.69;148924.59;5086586;28;20374;-66
2023/04/05 03:29:10;;;;;;;15.02;11.73;;;;;;;6.36;83.78;148902.88;5086454;28;20036;-65
2023/04/05 03:31:36;;;;;;;16.50;13.15;;;;;;;6.24;83.38;148873.44;5095247;28;20335;-66
2023/04/05 03:34:02;;;;;;;17.63;13.88;;;;;;;6.11;84.26;148841.50;5084209;28;20040;-65
2023/04/05 03:36:29;;;;;;;14.20;11.65;;;;;;;6.09;83.98;148835.16;5089829;28;20048;-65
2023/04/05 03:38:55;;;;;;;12.90;11.55;;;;;;;6.12;84.21;148842.81;5091474;28;20035;-66
2023/04/05 03:41:21;;;;;;;19.58;13.00;;;;;;;6.29;83.84;148885.00;5098700;28;20068;-66
2023/04/05 03:43:50;;;;;;;16.38;12.32;;;;;;;6.24;83.96;148872.19;5082822;28;20035;-65
2023/04/05 03:46:15;;;;;;;20.55;12.68;;;;;;;6.32;83.59;148893.91;5110611;28;20102;-66
2023/04/05 03:48:41;;;;;;;16.80;13.15;;;;;;;6.21;83.35;148865.78;5091888;28;20036;-67
2023/04/05 03:51:07;;;;;;;15.80;13.02;;;;;;;6.27;83.65;148881.16;5083705;28;20355;-65
2023/04/05 03:53:32;;;;;;;19.35;12.95;;;;;;;6.28;83.24;148882.41;5096702;28;20060;-65
2023/04/05 03:55:58;;;;;;;17.67;14.18;;;;;;;6.31;82.93;148891.34;5083861;28;20245;-66
2023/04/05 03:58:27;;;;;;;17.85;12.10;;;;;;;6.25;83.08;148876.03;5101795;28;20023;-66
2023/04/05 04:00:54;;;;;;;15.57;11.90;;;;;;;6.33;83.21;148896.47;5084178;28;20078;-67
2023/04/05 04:03:20;;;;;;;12.95;11.57;;;;;;;6.24;82.48;148873.44;5082495;28;20067;-68
2023/04/05 04:05:46;;;;;;;13.90;11.25;;;;;;;6.31;82.76;148891.34;5090284;28;20031;-67
2023/04/05 04:08:12;;;;;;;16.63;12.02;;;;;;;6.31;82.94;148890.09;5110000;28;20028;-66
2023/04/05 04:10:38;;;;;;;14.80;12.07;;;;;;;6.28;82.44;148883.69;5082983;28;20066;-68
2023/04/05 04:13:03;;;;;;;13.50;11.18;;;;;;;6.32;82.31;148893.91;5082789;28;20028;-68
2023/04/05 04:15:29;;;;;;;18.70;12.63;;;;;;;6.37;83.23;148906.72;5096151;28;20039;-66
2023/04/05 04:17:55;;;;;;;18.63;12.57;;;;;;;6.45;82.53;148924.59;5102876;28;20031;-68
2023/04/05 04:20:20;;;;;;;16.63;12.23;;;;;;;6.39;82.58;148911.81;5106061;28;20040;-66
2023/04/05 04:22:47;;;;;;;15.60;11.75;;;;;;;6.34;82.16;148899.03;5106141;28;20020;-67
2023/04/05 04:25:13;;;;;;;17.05;11.57;;;;;;;6.34;82.38;148897.75;5106326;28;20039;-67
2023/04/05 04:27:41;;;;;;;19.40;11.30;;;;;;;6.31;82.19;148890.09;5107091;28;20095;-67
2023/04/05 04:30:12;;;;;;;17.75;11.75;;;;;;;6.32;81.85;148893.91;5096214;28;20066;-66
2023/04/05 04:32:54;;;;;;;15.63;11.05;;;;;;;6.41;82.08;148915.63;5095761;28;20039;-68
2023/04/05 04:35:23;;;;;;;12.88;11.43;;;;;;;6.37;81.50;148906.72;5086098;28;20036;-67
2023/04/05 04:38:01;;;;;;;15.25;10.45;;;;;;;6.44;81.37;148923.34;5086427;28;20037;-67
2023/04/05 04:40:31;;;;;;;17.23;10.95;;;;;;;6.57;81.22;148955.31;5100284;28;20027;-66
2023/04/05 04:43:00;;;;;;;13.93;11.02;;;;;;;6.66;80.66;148977.03;5089168;28;20025;-69
2023/04/05 04:45:26;;;;;;;12.57;10.70;;;;;;;6.42;80.42;148918.19;5099183;28;20036;-69
2023/04/05 04:47:52;;;;;;;15.05;11.98;;;;;;;6.48;81.04;148933.53;5098481;28;20031;-67
2023/04/05 04:50:19;;;;;;;18.67;10.73;;;;;;;6.63;80.66;148970.63;5088480;28;20202;-67
2023/04/05 04:52:45;;;;;;;17.50;11.88;;;;;;;6.69;81.46;148985.94;5093226;28;20036;-68
2023/04/05 04:55:14;;;;;;;18.92;10.07;;;;;;;6.84;81.19;149021.75;5086038;28;20083;-67
2023/04/05 04:57:41;;;;;;;12.05;10.45;;;;;;;6.67;80.20;148979.53;5086212;28;20320;-69
2023/04/05 05:00:14;;;;;;;12.63;9.75;;;;;;;7.13;79.50;149093.41;5095896;28;20051;-69
2023/04/05 05:02:41;;;;;;;13.30;10.70;;;;;;;7.23;78.57;149118.97;5106129;28;20307;-68
2023/04/05 05:05:07;;;;;;;13.63;10.00;;;;;;;7.16;79.34;149101.06;5103913;28;20091;-67
2023/04/05 05:07:34;;;;;;;14.77;10.35;;;;;;;7.30;78.98;149135.59;5084493;28;20328;-67
2023/04/05 05:10:00;;;;;;;13.50;9.85;;;;;;;7.05;79.16;149074.19;5086241;28;20087;-67
2023/04/05 05:12:26;;;;;;;13.00;9.98;;;;;;;7.01;79.26;149065.25;5102297;28;20053;-67
2023/04/05 05:14:52;;;;;;;11.93;9.65;;;;;;;7.12;79.17;149092.09;5117301;28;20019;-68
2023/04/05 05:17:17;;;;;;;18.75;9.88;;;;;;;7.00;78.99;149061.44;5105692;28;20201;-69
2023/04/05 05:19:44;;;;;;;14.48;9.85;;;;;;;7.09;78.79;149084.41;5106484;28;20031;-68
2023/04/05 05:22:10;;;;;;;13.77;9.38;;;;;;;7.20;79.02;149112.56;5106003;28;20028;-67
2023/04/05 05:24:35;;;;;;;15.85;9.27;;;;;;;7.15;79.23;149099.75;5093868;28;20050;-68
2023/04/05 05:27:01;;;;;;;12.85;9.18;;;;;;;7.31;77.95;149139.44;5092405;28;20020;-68
2023/04/05 05:29:27;;;;;;;12.95;9.63;;;;;;;7.29;78.67;149133.03;5094201;28;20028;-69
2023/04/05 05:31:54;;;;;;;13.07;8.30;;;;;;;7.51;77.82;149189.31;5095302;28;20340;-68
2023/04/05 05:34:20;;;;;;;11.98;8.85;;;;;;;7.48;77.11;149181.66;5093871;28;20252;-69
2023/04/05 05:36:46;;;;;;;12.18;9.02;;;;;;;7.49;77.45;149182.91;5092921;28;20048;-71
2023/04/05 05:39:12;;;;;;;10.05;8.50;;;;;;;7.57;77.45;149204.66;5095834;28;20016;-69
2023/04/05 05:41:37;;;;;;;11.80;8.55;;;;;;;7.70;76.10;149236.66;5091700;28;20028;-69
2023/04/05 05:44:04;;;;;;;11.00;8.35;;;;;;;7.72;77.05;149240.47;5084971;28;20032;-67
2023/04/05 05:46:30;;;;;;;12.68;8.57;;;;;;;7.88;76.94;149281.47;5085313;28;20032;-68
2023/04/05 05:48:55;;;;;;;13.88;8.30;;;;;;;8.11;75.02;149339.03;5101817;28;20077;-68
2023/04/05 05:51:21;;;;;;;12.38;8.60;;;;;;;8.29;75.69;149383.84;5093284;28;20355;-68
2023/04/05 05:53:47;;;;;;;13.07;8.35;;;;;;;8.49;74.06;149431.25;5092116;28;20024;-69
2023/04/05 05:56:12;;;;;;;12.23;8.65;;;;;;;8.46;73.92;149426.16;5106144;28;20028;-69
2023/04/05 05:58:38;;;;;;;15.80;8.15;;;;;;;8.50;73.38;149433.84;5125953;28;20243;-68
2023/04/05 06:01:06;;;;;;;12.50;8.50;;;;;;;8.74;73.69;149495.28;5107231;28;20059;-68
2023/04/05 06:03:32;;;;;;;10.18;8.32;;;;;;;9.06;73.09;149573.41;5091759;28;20232;-69
2023/04/05 06:05:58;;;;;;;13.20;8.68;;;;;;;9.17;71.87;149600.31;5093266;28;20040;-67
2023/04/05 06:08:26;;;;;;;18.38;9.45;;;;;;;9.32;71.12;149640.03;5101376;28;20024;-68
2023/04/05 06:10:52;;;;;;;13.52;8.60;;;;;;;9.47;71.10;149677.16;5084863;28;20028;-68
2023/04/05 06:13:19;;;;;;;10.77;8.38;;;;;;;9.68;71.36;149728.44;5103956;28;20213;-68
2023/04/05 06:15:46;;;;;;;13.70;8.60;;;;;;;9.61;70.38;149711.78;5104537;28;20032;-68
2023/04/05 06:18:12;;;;;;;16.20;8.68;;;;;;;9.58;70.14;149702.81;5100389;28;20055;-68
2023/04/05 06:20:39;;;;;;;12.10;8.50;;;;;;;9.66;70.01;149724.59;5099292;28;20024;-67
2023/04/05 06:23:09;;;;;;;17.23;8.77;;;;;;;9.83;69.67;149766.91;5085230;28;20035;-67
2023/04/05 06:25:35;;;;;;;15.45;8.25;;;;;;;9.60;69.35;149707.94;5104624;28;20097;-68
2023/04/05 06:28:02;;;;;;;15.40;9.02;;;;;;;9.80;69.85;149757.91;5087678;28;20036;-70
2023/04/05 06:30:28;;;;;;;15.15;8.52;;;;;;;10.00;69.91;149807.88;5096948;28;20305;-69
2023/04/05 06:32:54;;;;;;;12.73;8.48;;;;;;;10.15;69.14;149846.34;5093154;28;20058;-68
2023/04/05 06:35:21;;;;;;;13.88;8.45;;;;;;;10.19;68.50;149855.34;5101200;28;20237;-68
2023/04/05 06:37:47;;;;;;;17.05;8.38;;;;;;;10.27;68.01;149874.56;5084322;28;20304;-70
2023/04/05 06:40:13;;;;;;;12.77;8.75;;;;;;;10.19;67.97;149855.34;5102641;28;20201;-68
2023/04/05 06:42:39;;;;;;;14.45;8.98;;;;;;;10.14;68.57;149843.78;5088983;28;20209;-68
2023/04/05 06:45:05;;;;;;;14.57;9.25;;;;;;;10.21;67.95;149859.19;5093063;28;20035;-69
2023/04/05 06:47:35;;;;;;;13.80;9.65;;;;;;;10.24;68.15;149866.88;5099960;28;20119;-69
2023/04/05 06:50:01;;;;;;;17.98;9.13;;;;;;;10.51;68.20;149936.16;5084135;28;20040;-70
2023/04/05 06:52:28;;;;;;;13.13;8.70;;;;;;;10.69;67.03;149979.78;5104530;28;20384;-68
2023/04/05 06:54:55;;;;;;;14.38;9.88;;;;;;;10.88;66.99;150027.22;5087169;28;20193;-68
2023/04/05 06:57:20;;;;;;;16.63;10.23;;;;;;;10.62;66.85;149961.84;5094509;28;20035;-68
2023/04/05 06:59:46;;;;;;;15.85;10.15;;;;;;;10.67;67.10;149975.94;5097755;28;20095;-67
2023/04/05 07:02:11;;;;;;;13.02;9.23;;;;;;;11.31;66.50;150133.72;5083639;28;20028;-70
2023/04/05 07:04:38;;;;;;;12.07;10.07;;;;;;;11.58;64.49;150203.00;5083807;28;20056;-69
2023/04/05 07:07:05;;;;;;;13.73;9.57;;;;;;;11.56;64.45;150196.59;5100801;28;20023;-69
2023/04/05 07:09:34;;;;;;;16.10;10.90;;;;;;;11.62;64.42;150210.72;5089991;28;20052;-70
2023/04/05 07:12:03;;;;;;;13.90;10.02;;;;;;;11.95;64.99;150294.19;5091562;28;20039;-69
2023/04/05 07:14:30;;;;;;;14.45;11.10;;;;;;;12.32;62.25;150386.63;5100110;28;20025;-69
2023/04/05 07:16:55;;;;;;;14.25;10.05;;;;;;;12.60;61.42;150457.28;5081812;28;20031;-68
2023/04/05 07:19:21;;;;;;;14.75;9.98;;;;;;;12.93;60.63;150539.47;5098256;28;20028;-69
2023/04/05 07:21:48;;;;;;;11.73;10.52;;;;;;;13.22;61.19;150610.16;5091582;28;20048;-70
2023/04/05 07:24:13;;;;;;;20.33;11.48;;;;;;;13.32;60.18;150635.84;5095835;28;20032;-68
2023/04/05 07:26:39;;;;;;;19.98;10.40;;;;;;;13.35;58.15;150643.59;5098809;28;20027;-68
2023/04/05 07:29:06;;;;;;;22.45;11.02;;;;;;;13.66;58.91;150720.72;5083455;28;20059;-67
2023/04/05 07:31:31;;;;;;;46.42;14.00;;;;;;;13.34;58.18;150641.00;5096028;28;20032;-71
2023/04/05 07:33:58;;;;;;;28.00;11.88;;;;;;;13.60;57.89;150706.59;5098929;28;20245;-72
2023/04/05 07:36:26;;;;;;;16.95;10.00;;;;;;;13.19;58.89;150603.72;5092292;28;20243;-70
2023/04/05 07:38:53;;;;;;;17.10;10.32;;;;;;;13.29;58.83;150629.41;5089551;28;20081;-71
2023/04/05 07:41:19;;;;;;;13.18;9.75;;;;;;;13.21;57.97;150608.88;5085777;28;20028;-70
2023/04/05 07:43:45;;;;;;;13.65;10.18;;;;;;;13.24;59.10;150615.28;5097473;28;20032;-71
2023/04/05 07:46:11;;;;;;;16.40;10.60;;;;;;;13.44;59.11;150665.50;5093341;28;20087;-69
2023/04/05 07:48:37;;;;;;;11.65;9.20;;;;;;;13.25;59.69;150619.19;5090587;28;20091;-70
2023/04/05 07:51:04;;;;;;;14.25;8.77;;;;;;;13.43;59.02;150662.91;5087688;28;20021;-69
2023/04/05 07:53:30;;;;;;;20.33;10.25;;;;;;;13.59;58.23;150704.00;5082660;28;20199;-71
2023/04/05 07:55:56;;;;;;;13.20;10.13;;;;;;;13.17;58.73;150597.28;5082918;28;20044;-70
2023/04/05 07:58:22;;;;;;;13.75;10.57;;;;;;;13.35;58.06;150643.59;5102062;28;20042;-69
2023/04/05 08:00:48;;;;;;;15.70;10.98;;;;;;;13.54;59.33;150689.88;5089027;28;20267;-70
2023/04/05 08:03:14;;;;;;;24.30;11.02;;;;;;;13.45;57.93;150668.03;5082935;28;20100;-69
2023/04/05 08:05:40;;;;;;;14.65;9.60;;;;;;;13.39;58.15;150653.88;5105535;28;20098;-69
2023/04/05 08:08:07;;;;;;;15.27;9.35;;;;;;;13.27;58.02;150624.28;5108990;28;20031;-69
2023/04/05 08:10:38;;;;;;;14.77;8.52;;;;;;;12.93;59.48;150539.47;5096558;28;20101;-69
2023/04/05 08:13:05;;;;;;;12.05;7.95;;;;;;;12.92;58.91;150536.91;5093428;28;20414;-69
2023/04/05 08:15:32;;;;;;;9.68;7.93;;;;;;;12.27;59.31;150373.81;5112339;28;20098;-70
2023/04/05 08:17:58;;;;;;;15.35;8.75;;;;;;;12.77;59.80;150498.41;5111108;28;20038;-70
2023/04/05 08:20:23;;;;;;;20.45;9.88;;;;;;;12.83;60.25;150513.81;5084951;28;20024;-69
2023/04/05 08:22:49;;;;;;;17.90;9.20;;;;;;;13.25;59.87;150617.84;5117458;28;20051;-69
2023/04/05 08:25:15;;;;;;;13.00;8.57;;;;;;;13.37;58.73;150647.50;5082424;28;20020;-70
2023/04/05 08:27:40;;;;;;;17.13;9.88;;;;;;;13.33;59.73;150637.16;5093755;28;20028;-70
2023/04/05 08:30:07;;;;;;;12.98;8.55;;;;;;;13.28;58.00;150626.88;5093143;28;20032;-70
2023/04/05 08:32:34;;;;;;;16.42;8.40;;;;;;;13.21;58.22;150608.88;5088853;28;20039;-70
2023/04/05 08:34:59;;;;;;;16.17;8.75;;;;;;;13.39;59.01;150653.88;5089812;28;20033;-70
2023/04/05 08:37:25;;;;;;;17.67;8.48;;;;;;;13.17;58.60;150598.59;5093555;28;20069;-70
2023/04/05 08:39:51;;;;;;;13.80;8.38;;;;;;;13.32;57.39;150634.56;5085239;28;20028;-69
2023/04/05 08:42:31;;;;;;;11.60;8.20;;;;;;;13.32;58.23;150634.56;5088593;28;20332;-70
2023/04/05 08:45:01;;;;;;;15.52;7.35;;;;;;;13.02;58.00;150560.03;5089050;28;20024;-70
2023/04/05 08:47:29;;;;;;;12.40;7.73;;;;;;;13.11;59.58;150584.47;5099819;28;20309;-71
2023/04/05 08:49:55;;;;;;;16.90;9.95;;;;;;;13.49;59.68;150678.31;5091862;28;20324;-69
2023/04/05 08:52:20;;;;;;;11.40;7.63;;;;;;;13.90;58.52;150781.16;5093720;28;20020;-69
2023/04/05 08:54:46;;;;;;;12.93;8.02;;;;;;;14.04;58.26;150814.56;5100241;28;20285;-69
2023/04/05 08:57:13;;;;;;;15.00;7.28;;;;;;;13.99;57.05;150803.00;5088995;28;20028;-70
2023/04/05 08:59:40;;;;;;;10.55;7.70;;;;;;;14.21;57.22;150858.31;5090722;28;20023;-69
2023/04/05 09:02:15;;;;;;;13.18;7.80;;;;;;;14.16;56.04;150845.44;5088610;28;20028;-70
2023/04/05 09:04:45;;;;;;;15.38;7.43;;;;;;;14.60;55.64;150954.78;5091614;28;20363;-70
2023/04/05 09:07:12;;;;;;;13.10;7.13;;;;;;;14.44;54.51;150914.91;5092706;28;20078;-70
2023/04/05 09:09:41;;;;;;;13.98;6.72;;;;;;;14.78;55.35;151001.13;5095011;28;20039;-70
2023/04/05 09:12:07;;;;;;;12.98;7.47;;;;;;;14.87;55.51;151021.72;5099730;28;20044;-71
2023/04/05 09:14:33;;;;;;;14.02;6.90;;;;;;;14.88;54.40;151024.25;5096111;28;20070;-72
2023/04/05 09:17:02;;;;;;;13.73;7.80;;;;;;;14.37;55.67;150896.91;5094322;28;20040;-71
2023/04/05 09:19:28;;;;;;;15.23;8.02;;;;;;;14.44;55.30;150916.19;5093047;28;20133;-70
2023/04/05 09:21:58;;;;;;;14.25;7.20;;;;;;;14.14;54.86;150840.31;5094305;28;20023;-71
2023/04/05 09:24:35;;;;;;;13.15;7.07;;;;;;;14.09;54.96;150828.69;5095642;28;20024;-71
2023/04/05 09:27:05;;;;;;;15.50;7.75;;;;;;;14.09;54.88;150827.44;5092254;28;20256;-70
2023/04/05 09:29:30;;;;;;;11.50;7.63;;;;;;;13.89;56.16;150778.56;5088432;28;20040;-70
2023/04/05 09:31:56;;;;;;;13.80;7.47;;;;;;;14.01;56.53;150806.84;5095007;28;20048;-70
2023/04/05 09:34:23;;;;;;;12.57;7.20;;;;;;;14.20;54.98;150855.72;5085240;28;20078;-69
2023/04/05 09:36:48;;;;;;;15.35;7.70;;;;;;;14.07;56.42;150822.31;5099256;28;20384;-70
2023/04/05 09:39:19;;;;;;;15.68;7.10;;;;;;;14.01;56.54;150806.84;5096995;28;20028;-69
2023/04/05 09:42:10;;;;;;;12.80;7.65;;;;;;;13.84;56.25;150765.75;5102800;28;20035;-70
2023/04/05 09:45:01;;;;;;;10.45;7.20;;;;;;;13.93;56.40;150788.84;5101086;28;20044;-69
2023/04/05 09:47:33;;;;;;;;;;;;;;;14.09;55.78;150827.44;5085832;28;20047;-70
2023/04/05 09:50:00;;;;;;;12.05;6.72;;;;;;;14.10;56.73;150831.28;5085412;28;20153;-71
2023/04/05 09:52:30;;;;;;;9.57;6.55;;;;;;;14.11;55.89;150832.59;5085794;28;20023;-72
2023/04/05 09:55:00;;;;;;;10.90;6.38;;;;;;;14.25;56.09;150868.59;5090759;28;20036;-72
2023/04/05 09:57:28;;;;;;;14.23;7.15;;;;;;;14.20;54.95;150855.72;5095340;28;20023;-71
2023/04/05 09:59:54;;;;;;;9.25;6.55;;;;;;;13.97;55.38;150799.16;5099679;28;20028;-70
2023/04/05 10:02:24;;;;;;;11.48;6.78;;;;;;;13.85;55.20;150767.00;5084670;28;20054;-70
2023/04/05 10:04:50;;;;;;;14.68;6.82;;;;;;;14.11;56.08;150833.88;5104786;28;20016;-71
2023/04/05 10:07:18;;;;;;;12.93;7.55;;;;;;;13.84;55.22;150764.41;5088162;28;20335;-70
2023/04/05 10:09:45;;;;;;;8.05;6.60;;;;;;;13.98;55.12;150801.72;5084969;28;20036;-71
2023/04/05 10:12:25;;;;;;;12.70;6.68;;;;;;;14.11;54.46;150833.88;5092783;28;20235;-70
2023/04/05 10:14:52;;;;;;;13.65;7.35;;;;;;;13.84;56.41;150764.41;5098498;28;20055;-70
2023/04/05 10:17:26;;;;;;;11.27;7.13;;;;;;;13.87;55.50;150773.44;5084432;28;20198;-69
2023/04/05 10:20:16;;;;;;;14.38;7.32;;;;;;;14.20;55.25;150855.72;5084618;28;20098;-70
2023/04/05 10:22:42;;;;;;;10.35;7.10;;;;;;;14.12;55.20;150835.16;5084810;28;20091;-70
2023/04/05 10:25:15;;;;;;;12.82;6.75;;;;;;;14.54;55.05;150940.63;5102984;28;20040;-69
2023/04/05 10:27:47;;;;;;;13.35;7.10;;;;;;;14.63;53.99;150963.78;5093417;28;20032;-70
2023/04/05 10:30:14;;;;;;;;;;;;;;;14.70;55.06;150979.28;5086810;28;20027;-70
2023/04/05 10:33:08;;;;;;;16.73;7.88;;;;;;;14.64;53.73;150966.38;5098027;28;19920;-70
2023/04/05 10:35:59;;;;;;;14.38;7.78;;;;;;;14.63;54.77;150962.53;5097025;28;20039;-70
2023/04/05 10:38:26;;;;;;;14.82;7.85;;;;;;;14.51;54.37;150932.91;5108499;28;20034;-70
2023/04/05 10:41:11;;;;;;;13.27;7.75;;;;;;;13.83;55.02;150761.88;5095683;28;20024;-69
2023/04/05 10:43:39;;;;;;;11.38;7.40;;;;;;;13.72;56.82;150734.88;5084356;28;20039;-69
2023/04/05 10:46:06;;;;;;;13.20;7.05;;;;;;;14.28;55.22;150875.00;5083702;28;20257;-70
2023/04/05 10:49:08;;;;;;;17.52;8.18;;;;;;;14.09;56.08;150827.44;5094810;28;20296;-70
2023/04/05 10:51:34;;;;;;;11.65;8.32;;;;;;;14.44;55.45;150916.19;5090442;28;20247;-70
2023/04/05 10:54:01;;;;;;;15.45;7.70;;;;;;;14.74;54.95;150989.56;5103015;28;20220;-70
2023/04/05 10:56:27;;;;;;;11.98;7.82;;;;;;;14.87;54.65;151023.00;5102704;28;20020;-69
2023/04/05 10:58:54;;;;;;;13.77;7.65;;;;;;;14.73;54.48;150986.97;5083911;28;20040;-70
2023/04/05 11:01:20;;;;;;;21.15;9.02;;;;;;;15.04;54.58;151064.19;5100790;28;20024;-70
2023/04/05 11:03:53;;;;;;;13.05;7.70;;;;;;;14.92;53.82;151034.56;5091609;28;20028;-69
2023/04/05 11:06:19;;;;;;;14.90;8.23;;;;;;;14.90;54.05;151029.44;5092247;28;20103;-71
2023/04/05 11:08:46;;;;;;;15.13;7.15;;;;;;;15.09;53.44;151077.03;5100806;28;20028;-71
2023/04/05 11:11:16;;;;;;;10.25;7.13;;;;;;;14.93;53.92;151038.41;5096253;28;20096;-71
2023/04/05 11:13:49;;;;;;;16.10;6.60;;;;;;;15.16;52.50;151096.34;5083487;28;20095;-70
2023/04/05 11:16:15;;;;;;;22.58;7.35;;;;;;;15.00;52.87;151056.44;5105786;28;20043;-70
2023/04/05 11:18:46;;;;;;;11.10;5.95;;;;;;;14.95;52.49;151042.28;5104379;28;20093;-70
2023/04/05 11:21:20;;;;;;;13.25;7.22;;;;;;;15.10;53.61;151079.63;5090742;28;20039;-71
2023/04/05 11:24:05;;;;;;;16.30;8.20;;;;;;;15.09;54.42;151077.03;5099916;28;20109;-71